createdAt,value
2022-08-20T00:01:11.040Z,6.73
2022-08-20T00:03:44.722Z,6.03
2022-08-20T00:06:23.698Z,6.97
2022-08-20T00:08:51.125Z,6.97
2022-08-20T00:11:24.071Z,6.77
2022-08-20T00:13:57.241Z,6.53
2022-08-20T00:16:27.233Z,6.37
2022-08-20T00:18:54.467Z,6.67
2022-08-20T00:21:23.319Z,6.77
2022-08-20T00:23:56.140Z,6.07
2022-08-20T00:26:24.198Z,6.63
2022-08-20T00:28:52.100Z,6.73
2022-08-20T00:31:22.131Z,7.27
2022-08-20T00:33:49.576Z,7.77
2022-08-20T00:36:17.528Z,9.53
2022-08-20T00:38:47.134Z,7.53
2022-08-20T00:41:23.246Z,7.57
2022-08-20T00:44:03.878Z,7.43
2022-08-20T00:46:32.200Z,7.57
2022-08-20T00:49:03.629Z,7.90
2022-08-20T00:51:52.911Z,7.23
2022-08-20T00:54:37.883Z,7.33
2022-08-20T00:57:12.547Z,7.47
2022-08-20T00:59:48.314Z,6.90
2022-08-20T01:02:17.790Z,9.23
2022-08-20T01:04:50.568Z,7.53
2022-08-20T01:07:20.518Z,7.07
2022-08-20T01:09:58.231Z,8.20
2022-08-20T01:12:29.137Z,7.17
2022-08-20T01:14:59.729Z,7.20
2022-08-20T01:17:32.332Z,7.07
2022-08-20T01:20:13.627Z,6.87
2022-08-20T01:23:17.073Z,8.03
2022-08-20T01:26:05.876Z,7.60
2022-08-20T01:28:52.770Z,7.63
2022-08-20T01:31:29.574Z,6.90
2022-08-20T01:33:59.411Z,7.40
2022-08-20T01:36:54.382Z,7.43
2022-08-20T01:39:32.010Z,6.47
2022-08-20T01:42:29.722Z,6.90
2022-08-20T01:44:56.478Z,7.37
2022-08-20T01:47:29.284Z,7.70
2022-08-20T01:50:01.294Z,7.43
2022-08-20T01:52:55.024Z,7.77
2022-08-20T01:55:22.347Z,7.03
2022-08-20T01:57:49.433Z,7.07
2022-08-20T02:00:20.071Z,7.17
2022-08-20T02:02:47.205Z,7.13
2022-08-20T02:05:14.030Z,7.73
2022-08-20T02:07:41.049Z,6.63
2022-08-20T02:10:12.091Z,7.60
2022-08-20T02:12:39.885Z,7.80
2022-08-20T02:15:10.864Z,7.37
2022-08-20T02:17:39.166Z,7.27
2022-08-20T02:20:18.885Z,7.37
2022-08-20T02:22:50.557Z,6.57
2022-08-20T02:25:22.897Z,7.33
2022-08-20T02:27:52.772Z,7.33
2022-08-20T02:30:27.778Z,6.83
2022-08-20T02:32:57.403Z,7.43
2022-08-20T02:35:25.292Z,7.47
2022-08-20T02:37:54.865Z,7.03
2022-08-20T02:40:30.155Z,7.00
2022-08-20T02:42:59.771Z,7.03
2022-08-20T02:45:27.914Z,7.23
2022-08-20T02:47:56.818Z,7.80
2022-08-20T02:50:25.966Z,6.93
2022-08-20T02:52:52.846Z,7.83
2022-08-20T02:55:27.753Z,7.30
2022-08-20T02:57:59.153Z,7.40
2022-08-20T03:00:32.045Z,7.17
2022-08-20T03:03:10.659Z,7.53
2022-08-20T03:05:40.857Z,6.83
2022-08-20T03:08:12.134Z,6.47
2022-08-20T03:10:42.735Z,8.00
2022-08-20T03:13:12.352Z,6.90
2022-08-20T03:15:46.737Z,7.43
2022-08-20T03:18:15.743Z,6.87
2022-08-20T03:20:45.967Z,6.60
2022-08-20T03:23:14.525Z,6.87
2022-08-20T03:25:42.066Z,7.87
2022-08-20T03:28:10.139Z,7.40
2022-08-20T03:30:37.300Z,6.33
2022-08-20T03:33:04.450Z,6.60
2022-08-20T03:35:33.812Z,6.53
2022-08-20T03:38:00.980Z,6.70
2022-08-20T03:40:32.690Z,6.80
2022-08-20T03:43:00.872Z,6.93
2022-08-20T03:45:29.737Z,6.70
2022-08-20T03:47:57.982Z,7.00
2022-08-20T03:50:29.066Z,6.70
2022-08-20T03:52:57.639Z,7.27
2022-08-20T03:55:26.305Z,6.57
2022-08-20T03:58:02.586Z,6.87
2022-08-20T04:00:38.214Z,6.83
2022-08-20T04:03:08.243Z,6.30
2022-08-20T04:05:40.583Z,7.00
2022-08-20T04:08:18.657Z,6.60
2022-08-20T04:10:47.868Z,7.03
2022-08-20T04:13:18.297Z,7.07
2022-08-20T04:15:45.871Z,6.53
2022-08-20T04:18:13.561Z,6.57
2022-08-20T04:20:43.291Z,7.20
2022-08-20T04:23:10.478Z,7.60
2022-08-20T04:25:43.297Z,7.00
2022-08-20T04:28:27.243Z,6.63
2022-08-20T04:30:57.390Z,6.47
2022-08-20T04:33:33.955Z,6.60
2022-08-20T04:36:03.667Z,6.33
2022-08-20T04:38:47.777Z,6.40
2022-08-20T04:41:23.438Z,6.10
2022-08-20T04:43:54.136Z,5.70
2022-08-20T04:46:28.396Z,6.27
2022-08-20T04:48:57.260Z,5.77
2022-08-20T04:51:24.813Z,6.23
2022-08-20T04:53:54.205Z,6.13
2022-08-20T04:56:26.883Z,5.93
2022-08-20T04:58:57.260Z,6.17
2022-08-20T05:01:26.166Z,6.00
2022-08-20T05:03:55.270Z,6.53
2022-08-20T05:06:25.776Z,6.00
2022-08-20T05:08:54.669Z,6.27
2022-08-20T05:11:34.773Z,6.47
2022-08-20T05:14:09.592Z,6.43
2022-08-20T05:16:39.110Z,6.40
2022-08-20T05:19:10.224Z,6.23
2022-08-20T05:21:37.600Z,5.33
2022-08-20T05:24:06.477Z,5.80
2022-08-20T05:26:33.658Z,5.73
2022-08-20T05:29:00.458Z,6.70
2022-08-20T05:31:32.137Z,6.60
2022-08-20T05:34:12.330Z,6.77
2022-08-20T05:36:48.268Z,6.70
2022-08-20T05:39:18.469Z,6.57
2022-08-20T05:41:45.986Z,6.73
2022-08-20T05:44:15.881Z,5.87
2022-08-20T05:46:46.436Z,6.47
2022-08-20T05:49:19.842Z,6.40
2022-08-20T05:51:48.613Z,5.93
2022-08-20T05:54:15.484Z,6.17
2022-08-20T05:56:42.624Z,6.33
2022-08-20T05:59:12.228Z,7.40
2022-08-20T06:01:41.311Z,6.83
2022-08-20T06:04:25.219Z,6.53
2022-08-20T06:06:56.138Z,6.43
2022-08-20T06:09:30.625Z,6.60
2022-08-20T06:12:01.961Z,6.20
2022-08-20T06:14:29.460Z,7.07
2022-08-20T06:17:07.868Z,6.63
2022-08-20T06:19:37.306Z,7.00
2022-08-20T06:22:17.256Z,6.60
2022-08-20T06:24:47.318Z,7.80
2022-08-20T06:27:16.394Z,10.50
2022-08-20T06:29:43.679Z,8.70
2022-08-20T06:32:11.028Z,7.37
2022-08-20T06:34:37.873Z,12.43
2022-08-20T06:37:31.194Z,8.00
2022-08-20T06:40:12.071Z,8.57
2022-08-20T06:42:45.724Z,8.13
2022-08-20T06:45:24.929Z,8.50
2022-08-20T06:47:55.835Z,8.10
2022-08-20T06:50:47.071Z,7.20
2022-08-20T06:53:19.331Z,7.40
2022-08-20T06:55:53.116Z,7.23
2022-08-20T06:58:36.348Z,8.43
2022-08-20T07:01:09.443Z,8.50
2022-08-20T07:03:54.670Z,10.20
2022-08-20T07:06:25.667Z,9.13
2022-08-20T07:08:54.443Z,9.50
2022-08-20T07:11:27.023Z,12.40
2022-08-20T07:13:56.787Z,10.80
2022-08-20T07:16:24.330Z,9.00
2022-08-20T07:18:51.271Z,9.93
2022-08-20T07:21:18.023Z,8.50
2022-08-20T07:23:45.021Z,7.93
2022-08-20T07:26:13.086Z,8.70
2022-08-20T07:28:40.073Z,13.83
2022-08-20T07:31:25.692Z,12.40
2022-08-20T07:33:53.977Z,11.00
2022-08-20T07:36:20.816Z,10.30
2022-08-20T07:38:50.850Z,9.63
2022-08-20T07:41:19.020Z,11.47
2022-08-20T07:43:47.510Z,10.30
2022-08-20T07:46:20.808Z,10.23
2022-08-20T07:48:50.102Z,9.83
2022-08-20T07:51:22.575Z,8.93
2022-08-20T07:53:51.561Z,8.53
2022-08-20T07:56:24.440Z,7.67
2022-08-20T07:58:55.562Z,8.00
2022-08-20T08:01:30.289Z,7.90
2022-08-20T08:03:59.226Z,8.10
2022-08-20T08:06:31.071Z,7.80
2022-08-20T08:09:14.370Z,7.73
2022-08-20T08:11:51.656Z,8.53
2022-08-20T08:14:26.606Z,8.40
2022-08-20T08:16:57.172Z,7.67
2022-08-20T08:19:28.469Z,8.40
2022-08-20T08:21:57.332Z,8.20
2022-08-20T08:24:28.512Z,8.87
2022-08-20T08:26:55.555Z,8.33
2022-08-20T08:29:22.486Z,7.70
2022-08-20T08:31:49.256Z,7.90
2022-08-20T08:34:16.763Z,7.83
2022-08-20T08:36:44.204Z,8.07
2022-08-20T08:39:11.119Z,8.10
2022-08-20T08:41:47.226Z,8.23
2022-08-20T08:44:39.459Z,8.40
2022-08-20T08:47:26.923Z,7.97
2022-08-20T08:49:54.126Z,8.50
2022-08-20T08:52:34.151Z,8.07
2022-08-20T08:55:06.158Z,7.07
2022-08-20T08:57:33.668Z,7.50
2022-08-20T09:00:08.111Z,7.77
2022-08-20T09:02:38.574Z,7.57
2022-08-20T09:05:16.755Z,8.13
2022-08-20T09:07:49.565Z,8.30
2022-08-20T09:10:22.936Z,7.60
2022-08-20T09:12:52.229Z,8.03
2022-08-20T09:15:21.056Z,8.90
2022-08-20T09:17:47.914Z,8.17
2022-08-20T09:20:14.840Z,8.03
2022-08-20T09:22:41.795Z,8.30
2022-08-20T09:25:09.087Z,8.37
2022-08-20T09:27:36.056Z,10.57
2022-08-20T09:30:05.403Z,8.70
2022-08-20T09:32:32.851Z,9.30
2022-08-20T09:34:59.881Z,8.50
2022-08-20T09:37:36.704Z,10.33
2022-08-20T09:40:08.088Z,9.73
2022-08-20T09:42:41.301Z,9.90
2022-08-20T09:45:10.850Z,10.13
2022-08-20T09:47:38.897Z,8.33
2022-08-20T09:50:11.017Z,8.50
2022-08-20T09:52:50.250Z,8.73
2022-08-20T09:55:39.714Z,8.47
2022-08-20T09:58:13.041Z,7.53
2022-08-20T10:00:40.531Z,7.87
2022-08-20T10:03:07.313Z,6.97
2022-08-20T10:05:34.152Z,7.87
2022-08-20T10:08:05.415Z,7.03
2022-08-20T10:10:32.304Z,7.53
2022-08-20T10:12:59.063Z,6.67
2022-08-20T10:15:25.939Z,6.67
2022-08-20T10:17:52.753Z,7.30
2022-08-20T10:20:19.937Z,7.00
2022-08-20T10:22:46.774Z,7.23
2022-08-20T10:25:13.681Z,6.77
2022-08-20T10:27:40.560Z,7.03
2022-08-20T10:30:08.751Z,6.47
2022-08-20T10:32:35.746Z,7.33
2022-08-20T10:35:04.499Z,6.80
2022-08-20T10:37:31.616Z,7.57
2022-08-20T10:39:58.452Z,9.03
2022-08-20T10:42:25.291Z,6.63
2022-08-20T10:44:52.122Z,7.10
2022-08-20T10:47:29.254Z,6.80
2022-08-20T10:50:01.704Z,7.07
2022-08-20T10:52:29.157Z,7.93
2022-08-20T10:54:56.725Z,7.30
2022-08-20T10:57:27.594Z,6.87
2022-08-20T10:59:58.850Z,7.10
2022-08-20T11:02:27.533Z,6.87
2022-08-20T11:04:55.202Z,6.80
2022-08-20T11:07:50.477Z,6.97
2022-08-20T11:10:26.713Z,7.20
2022-08-20T11:12:54.389Z,6.77
2022-08-20T11:15:21.193Z,7.03
2022-08-20T11:17:48.106Z,7.37
2022-08-20T11:20:18.699Z,6.97
2022-08-20T11:22:46.087Z,7.03
2022-08-20T11:25:13.378Z,6.47
2022-08-20T11:27:46.290Z,6.20
2022-08-20T11:30:27.304Z,6.33
2022-08-20T11:32:55.474Z,5.93
2022-08-20T11:35:43.284Z,6.60
2022-08-20T11:38:10.799Z,6.53
2022-08-20T11:40:37.651Z,6.13
2022-08-20T11:43:14.838Z,6.97
2022-08-20T11:45:49.513Z,6.50
2022-08-20T11:48:16.863Z,6.73
2022-08-20T11:50:43.759Z,6.93
2022-08-20T11:53:10.597Z,7.10
2022-08-20T11:55:38.914Z,7.10
2022-08-20T11:58:06.109Z,7.53
2022-08-20T12:00:34.531Z,7.10
2022-08-20T12:03:09.503Z,6.97
2022-08-20T12:05:44.831Z,7.30
2022-08-20T12:08:26.959Z,7.50
2022-08-20T12:10:56.489Z,7.10
2022-08-20T12:13:23.673Z,7.13
2022-08-20T12:15:58.427Z,7.20
2022-08-20T12:18:27.120Z,7.17
2022-08-20T12:20:54.798Z,7.23
2022-08-20T12:23:21.594Z,6.33
2022-08-20T12:25:49.983Z,7.00
2022-08-20T12:28:17.066Z,6.10
2022-08-20T12:30:49.782Z,6.93
2022-08-20T12:33:16.696Z,6.60
2022-08-20T12:35:43.580Z,6.27
2022-08-20T12:38:10.426Z,7.00
2022-08-20T12:40:37.552Z,6.40
2022-08-20T12:43:05.259Z,6.90
2022-08-20T12:45:34.609Z,7.13
2022-08-20T12:48:08.971Z,6.40
2022-08-20T12:50:38.016Z,6.20
2022-08-20T12:53:05.652Z,7.30
2022-08-20T12:55:33.566Z,6.60
2022-08-20T12:58:03.451Z,6.67
2022-08-20T13:00:38.842Z,7.30
2022-08-20T13:03:12.201Z,6.87
2022-08-20T13:05:40.041Z,7.27
2022-08-20T13:08:12.725Z,6.90
2022-08-20T13:10:46.829Z,7.57
2022-08-20T13:13:20.354Z,7.27
2022-08-20T13:15:50.652Z,7.23
2022-08-20T13:18:18.394Z,7.07
2022-08-20T13:20:45.903Z,7.10
2022-08-20T13:23:12.837Z,6.60
2022-08-20T13:25:39.639Z,6.93
2022-08-20T13:28:06.677Z,7.20
2022-08-20T13:30:38.438Z,7.00
2022-08-20T13:33:05.259Z,7.50
2022-08-20T13:35:32.209Z,6.60
2022-08-20T13:37:59.081Z,6.13
2022-08-20T13:40:26.501Z,6.10
2022-08-20T13:42:53.531Z,5.93
2022-08-20T13:45:20.560Z,5.77
2022-08-20T13:47:54.378Z,5.67
2022-08-20T13:50:25.290Z,5.17
2022-08-20T13:52:52.317Z,5.47
2022-08-20T13:55:23.178Z,5.23
2022-08-20T13:57:51.503Z,5.27
2022-08-20T14:00:30.956Z,4.80
2022-08-20T14:03:00.183Z,4.83
2022-08-20T14:05:27.636Z,4.50
2022-08-20T14:07:54.927Z,4.77
2022-08-20T14:10:26.791Z,5.03
2022-08-20T14:12:53.638Z,5.93
2022-08-20T14:15:20.565Z,6.00
2022-08-20T14:17:55.848Z,5.47
2022-08-20T14:20:29.286Z,6.97
2022-08-20T14:23:00.488Z,6.63
2022-08-20T14:25:29.214Z,6.07
2022-08-20T14:27:56.455Z,6.17
2022-08-20T14:30:29.862Z,5.97
2022-08-20T14:32:57.533Z,5.60
2022-08-20T14:35:24.656Z,5.40
2022-08-20T14:37:54.103Z,5.10
2022-08-20T14:40:23.857Z,4.90
2022-08-20T14:42:51.874Z,4.83
2022-08-20T14:45:20.422Z,4.87
2022-08-20T14:47:54.417Z,4.83
2022-08-20T14:50:39.417Z,5.07
2022-08-20T14:53:07.491Z,4.80
2022-08-20T14:55:37.852Z,4.47
2022-08-20T14:58:10.846Z,4.27
2022-08-20T15:00:37.925Z,4.63
2022-08-20T15:03:04.814Z,5.33
2022-08-20T15:05:31.601Z,5.77
2022-08-20T15:07:58.638Z,5.67
2022-08-20T15:10:31.780Z,5.60
2022-08-20T15:13:00.122Z,5.70
2022-08-20T15:15:27.017Z,5.63
2022-08-20T15:17:57.584Z,5.23
2022-08-20T15:20:28.735Z,4.83
2022-08-20T15:22:55.774Z,5.40
2022-08-20T15:25:29.072Z,5.13
2022-08-20T15:28:05.715Z,4.20
2022-08-20T15:30:37.583Z,3.57
2022-08-20T15:33:04.603Z,3.80
2022-08-20T15:35:31.591Z,3.60
2022-08-20T15:37:59.691Z,3.87
2022-08-20T15:40:31.302Z,3.03
2022-08-20T15:43:04.790Z,3.73
2022-08-20T15:45:34.093Z,3.50
2022-08-20T15:48:30.503Z,3.30
2022-08-20T15:51:32.754Z,3.70
2022-08-20T15:54:13.994Z,3.57
2022-08-20T15:57:13.991Z,3.40
2022-08-20T16:00:10.060Z,3.00
2022-08-20T16:03:05.739Z,3.50
2022-08-20T16:06:00.843Z,3.60
2022-08-20T16:09:25.927Z,3.47
2022-08-20T16:12:08.223Z,3.43
2022-08-20T16:14:40.779Z,3.43
2022-08-20T16:17:15.567Z,3.53
2022-08-20T16:19:56.027Z,3.30
2022-08-20T16:22:23.339Z,3.77
2022-08-20T16:24:50.634Z,3.30
2022-08-20T16:27:38.769Z,3.03
2022-08-20T16:30:14.660Z,3.47
2022-08-20T16:33:03.381Z,3.43
2022-08-20T16:36:01.458Z,3.30
2022-08-20T16:38:54.839Z,3.00
2022-08-20T16:41:33.669Z,2.70
2022-08-20T16:44:12.387Z,2.53
2022-08-20T16:46:50.220Z,2.77
2022-08-20T16:49:17.020Z,2.57
2022-08-20T16:51:51.871Z,2.50
2022-08-20T16:54:28.417Z,2.40
2022-08-20T16:57:04.372Z,2.70
2022-08-20T16:59:32.639Z,2.43
2022-08-20T17:02:11.158Z,2.10
2022-08-20T17:04:59.121Z,2.30
2022-08-20T17:07:51.303Z,2.73
2022-08-20T17:10:25.933Z,2.87
2022-08-20T17:12:59.294Z,2.47
2022-08-20T17:15:31.805Z,2.60
2022-08-20T17:18:25.557Z,2.30
2022-08-20T17:20:52.799Z,2.27
2022-08-20T17:23:21.362Z,2.97
2022-08-20T17:26:04.643Z,2.50
2022-08-20T17:28:35.271Z,2.63
2022-08-20T17:31:02.421Z,2.40
2022-08-20T17:33:32.227Z,2.23
2022-08-20T17:36:06.824Z,2.20
2022-08-20T17:38:52.642Z,2.30
2022-08-20T17:41:37.742Z,2.47
2022-08-20T17:44:08.756Z,2.27
2022-08-20T17:46:46.912Z,2.50
2022-08-20T17:49:34.754Z,2.47
2022-08-20T17:52:11.633Z,2.30
2022-08-20T17:54:43.962Z,2.33
2022-08-20T17:57:28.603Z,2.40
2022-08-20T18:00:02.714Z,1.90
2022-08-20T18:02:30.594Z,2.27
2022-08-20T18:04:57.498Z,2.27
2022-08-20T18:07:36.117Z,2.30
2022-08-20T18:10:14.316Z,2.07
2022-08-20T18:13:20.953Z,2.10
2022-08-20T18:15:57.752Z,2.40
2022-08-20T18:18:56.263Z,2.30
2022-08-20T18:21:56.867Z,2.50
2022-08-20T18:24:55.855Z,2.40
2022-08-20T18:27:27.998Z,2.40
2022-08-20T18:30:00.322Z,2.37
2022-08-20T18:32:38.350Z,3.00
2022-08-20T18:35:45.460Z,2.50
2022-08-20T18:38:30.912Z,2.57
2022-08-20T18:41:15.293Z,2.40
2022-08-20T18:43:43.378Z,2.47
2022-08-20T18:46:22.658Z,2.50
2022-08-20T18:49:01.154Z,2.77
2022-08-20T18:51:48.502Z,2.53
2022-08-20T18:54:30.307Z,2.70
2022-08-20T18:57:40.645Z,2.60
2022-08-20T19:00:18.382Z,2.50
2022-08-20T19:03:06.128Z,2.33
2022-08-20T19:05:45.131Z,2.60
2022-08-20T19:08:25.251Z,2.87
2022-08-20T19:11:33.190Z,3.10
2022-08-20T19:14:08.925Z,2.77
2022-08-20T19:16:45.910Z,3.23
2022-08-20T19:19:20.359Z,2.80
2022-08-20T19:21:47.950Z,3.00
2022-08-20T19:24:23.594Z,3.27
2022-08-20T19:27:10.681Z,3.00
2022-08-20T19:29:47.156Z,3.00
2022-08-20T19:32:25.896Z,2.80
2022-08-20T19:35:00.406Z,3.53
2022-08-20T19:37:50.971Z,3.30
2022-08-20T19:40:35.133Z,3.30
2022-08-20T19:43:14.088Z,3.23
2022-08-20T19:45:51.702Z,3.03
2022-08-20T19:49:10.649Z,3.30
2022-08-20T19:51:55.470Z,3.03
2022-08-20T19:54:27.485Z,3.00
2022-08-20T19:57:05.604Z,3.67
2022-08-20T19:59:32.757Z,3.33
2022-08-20T20:02:03.688Z,3.40
2022-08-20T20:04:55.722Z,3.43
2022-08-20T20:07:39.647Z,3.63
2022-08-20T20:10:19.561Z,3.47
2022-08-20T20:12:47.624Z,3.80
2022-08-20T20:15:15.756Z,3.67
2022-08-20T20:17:43.496Z,3.30
2022-08-20T20:20:28.785Z,3.63
2022-08-20T20:23:05.873Z,3.50
2022-08-20T20:25:33.979Z,3.40
2022-08-20T20:28:28.213Z,3.97
2022-08-20T20:31:07.871Z,3.50
2022-08-20T20:33:43.943Z,3.47
2022-08-20T20:36:16.585Z,3.37
2022-08-20T20:38:58.747Z,3.40
2022-08-20T20:41:29.364Z,3.97
2022-08-20T20:44:27.509Z,3.77
2022-08-20T20:47:02.966Z,3.83
2022-08-20T20:49:50.091Z,4.00
2022-08-20T20:52:33.307Z,4.20
2022-08-20T20:55:06.406Z,4.20
2022-08-20T20:57:38.173Z,3.87
2022-08-20T21:00:12.263Z,3.30
2022-08-20T21:02:39.813Z,3.77
2022-08-20T21:05:08.034Z,3.37
2022-08-20T21:07:34.870Z,3.90
2022-08-20T21:10:01.729Z,3.90
2022-08-20T21:12:28.744Z,3.40
2022-08-20T21:14:55.559Z,3.57
2022-08-20T21:17:23.055Z,3.90
2022-08-20T21:19:51.657Z,3.60
2022-08-20T21:22:20.162Z,4.23
2022-08-20T21:24:51.144Z,3.70
2022-08-20T21:27:27.485Z,3.60
2022-08-20T21:29:57.927Z,3.90
2022-08-20T21:32:24.767Z,3.97
2022-08-20T21:34:51.666Z,3.63
2022-08-20T21:37:18.602Z,3.93
2022-08-20T21:39:47.836Z,3.70
2022-08-20T21:42:28.947Z,3.83
2022-08-20T21:44:57.854Z,4.07
2022-08-20T21:47:25.550Z,3.97
2022-08-20T21:49:52.411Z,4.00
2022-08-20T21:52:19.194Z,4.03
2022-08-20T21:54:46.371Z,3.83
2022-08-20T21:57:25.498Z,3.83
2022-08-20T21:59:52.605Z,3.50
2022-08-20T22:02:21.146Z,3.93
2022-08-20T22:04:48.117Z,3.63
2022-08-20T22:07:21.291Z,3.60
2022-08-20T22:09:48.116Z,3.97
2022-08-20T22:12:21.770Z,3.90
2022-08-20T22:14:49.034Z,3.63
2022-08-20T22:17:16.324Z,4.10
2022-08-20T22:19:45.968Z,3.70
2022-08-20T22:22:15.515Z,3.93
2022-08-20T22:24:42.602Z,3.73
2022-08-20T22:27:09.449Z,3.93
2022-08-20T22:29:36.434Z,4.10
2022-08-20T22:32:03.767Z,4.03
2022-08-20T22:34:33.885Z,3.80
2022-08-20T22:37:01.867Z,4.40
2022-08-20T22:39:28.797Z,3.80
2022-08-20T22:41:55.744Z,4.23
2022-08-20T22:44:22.519Z,4.20
2022-08-20T22:46:59.603Z,3.87
2022-08-20T22:49:32.225Z,3.70
2022-08-20T22:51:59.794Z,3.90
2022-08-20T22:54:27.580Z,3.77
2022-08-20T22:56:55.684Z,3.77
2022-08-20T22:59:23.609Z,3.90
2022-08-20T23:01:51.766Z,4.03
2022-08-20T23:04:33.688Z,4.17
2022-08-20T23:07:06.113Z,3.90
2022-08-20T23:09:32.871Z,4.30
2022-08-20T23:11:59.974Z,4.03
2022-08-20T23:14:26.951Z,3.87
2022-08-20T23:17:20.054Z,3.90
2022-08-20T23:19:48.892Z,3.83
2022-08-20T23:22:17.401Z,4.80
2022-08-20T23:24:44.791Z,4.00
2022-08-20T23:27:16.741Z,3.63
2022-08-20T23:29:43.974Z,4.17
2022-08-20T23:32:11.823Z,4.03
2022-08-20T23:34:39.205Z,4.20
2022-08-20T23:37:08.090Z,4.00
2022-08-20T23:39:34.930Z,4.27
2022-08-20T23:42:02.778Z,3.90
2022-08-20T23:44:29.903Z,3.60
2022-08-20T23:47:21.414Z,4.13
2022-08-20T23:49:48.657Z,5.07
2022-08-20T23:52:15.491Z,4.70
2022-08-20T23:54:42.670Z,4.10
2022-08-20T23:57:09.535Z,4.03
2022-08-20T23:59:36.761Z,4.00
